sensor_id;sensor_type;location;lat;lon;timestamp;temperature;humidity
34460;DHT22;20704;51.260;22.558;2024-02-14T00:03:07;5.50;1.00
34460;DHT22;20704;51.260;22.558;2024-02-14T00:05:10;5.50;1.40
34460;DHT22;20704;51.260;22.558;2024-02-14T00:07:12;5.50;1.00
34460;DHT22;20704;51.260;22.558;2024-02-14T00:09:15;5.50;1.00
34460;DHT22;20704;51.260;22.558;2024-02-14T00:11:18;5.50;1.00
34460;DHT22;20704;51.260;22.558;2024-02-14T00:13:20;5.50;1.00
34460;DHT22;20704;51.260;22.558;2024-02-14T00:15:22;5.50;1.00
34460;DHT22;20704;51.260;22.558;2024-02-14T00:17:26;5.50;1.00
34460;DHT22;20704;51.260;22.558;2024-02-14T00:19:28;5.50;1.00
34460;DHT22;20704;51.260;22.558;2024-02-14T00:21:30;5.50;1.00
34460;DHT22;20704;51.260;22.558;2024-02-14T00:23:33;5.50;1.00
34460;DHT22;20704;51.260;22.558;2024-02-14T00:25:36;5.50;1.00
34460;DHT22;20704;51.260;22.558;2024-02-14T00:27:38;5.50;1.00
34460;DHT22;20704;51.260;22.558;2024-02-14T00:29:41;5.50;1.00
34460;DHT22;20704;51.260;22.558;2024-02-14T00:31:47;5.50;1.00
34460;DHT22;20704;51.260;22.558;2024-02-14T00:33:49;5.50;1.00
34460;DHT22;20704;51.260;22.558;2024-02-14T00:35:52;5.50;1.00
34460;DHT22;20704;51.260;22.558;2024-02-14T00:37:54;5.50;1.00
34460;DHT22;20704;51.260;22.558;2024-02-14T00:39:57;5.50;1.00
34460;DHT22;20704;51.260;22.558;2024-02-14T00:42:00;5.50;1.00
34460;DHT22;20704;51.260;22.558;2024-02-14T00:44:02;5.50;1.00
34460;DHT22;20704;51.260;22.558;2024-02-14T00:46:07;5.50;1.00
34460;DHT22;20704;51.260;22.558;2024-02-14T00:48:10;5.50;1.00
34460;DHT22;20704;51.260;22.558;2024-02-14T00:50:12;5.50;1.00
34460;DHT22;20704;51.260;22.558;2024-02-14T00:52:16;5.50;1.00
34460;DHT22;20704;51.260;22.558;2024-02-14T00:54:19;5.50;1.00
34460;DHT22;20704;51.260;22.558;2024-02-14T00:56:21;5.50;1.00
34460;DHT22;20704;51.260;22.558;2024-02-14T00:58:26;5.50;1.00
34460;DHT22;20704;51.260;22.558;2024-02-14T01:00:28;5.50;1.00
34460;DHT22;20704;51.260;22.558;2024-02-14T01:02:31;5.50;1.00
34460;DHT22;20704;51.260;22.558;2024-02-14T01:06:38;5.50;1.00
34460;DHT22;20704;51.260;22.558;2024-02-14T01:08:41;5.50;1.00
34460;DHT22;20704;51.260;22.558;2024-02-14T01:10:44;5.50;1.00
34460;DHT22;20704;51.260;22.558;2024-02-14T01:14:51;5.50;1.00
34460;DHT22;20704;51.260;22.558;2024-02-14T01:16:53;5.50;1.00
34460;DHT22;20704;51.260;22.558;2024-02-14T01:18:59;5.40;1.00
34460;DHT22;20704;51.260;22.558;2024-02-14T01:21:02;5.50;1.00
34460;DHT22;20704;51.260;22.558;2024-02-14T01:23:04;5.50;1.00
34460;DHT22;20704;51.260;22.558;2024-02-14T01:25:07;5.50;1.00
34460;DHT22;20704;51.260;22.558;2024-02-14T01:27:12;5.50;1.00
34460;DHT22;20704;51.260;22.558;2024-02-14T01:29:14;5.50;1.00
34460;DHT22;20704;51.260;22.558;2024-02-14T01:31:19;5.50;1.00
34460;DHT22;20704;51.260;22.558;2024-02-14T01:33:22;5.50;1.00
34460;DHT22;20704;51.260;22.558;2024-02-14T01:35:24;5.50;1.00
34460;DHT22;20704;51.260;22.558;2024-02-14T01:37:28;5.50;1.00
34460;DHT22;20704;51.260;22.558;2024-02-14T01:39:31;5.50;1.00
34460;DHT22;20704;51.260;22.558;2024-02-14T01:41:33;5.50;1.00
34460;DHT22;20704;51.260;22.558;2024-02-14T01:43:36;5.50;1.00
34460;DHT22;20704;51.260;22.558;2024-02-14T01:45:40;5.50;1.00
34460;DHT22;20704;51.260;22.558;2024-02-14T01:47:42;5.50;1.00
34460;DHT22;20704;51.260;22.558;2024-02-14T01:49:45;5.60;1.00
34460;DHT22;20704;51.260;22.558;2024-02-14T01:51:49;5.50;1.00
34460;DHT22;20704;51.260;22.558;2024-02-14T01:53:52;5.50;1.00
34460;DHT22;20704;51.260;22.558;2024-02-14T01:55:59;5.50;1.00
34460;DHT22;20704;51.260;22.558;2024-02-14T01:58:02;5.50;1.00
34460;DHT22;20704;51.260;22.558;2024-02-14T02:00:06;5.50;1.00
34460;DHT22;20704;51.260;22.558;2024-02-14T02:02:17;5.50;1.00
34460;DHT22;20704;51.260;22.558;2024-02-14T02:04:20;5.40;1.00
34460;DHT22;20704;51.260;22.558;2024-02-14T02:06:22;5.40;1.00
34460;DHT22;20704;51.260;22.558;2024-02-14T02:08:25;5.40;1.00
34460;DHT22;20704;51.260;22.558;2024-02-14T02:10:27;5.50;1.00
34460;DHT22;20704;51.260;22.558;2024-02-14T02:12:31;5.40;1.00
34460;DHT22;20704;51.260;22.558;2024-02-14T02:14:34;5.40;1.00
34460;DHT22;20704;51.260;22.558;2024-02-14T02:16:37;5.40;1.00
34460;DHT22;20704;51.260;22.558;2024-02-14T02:18:40;5.40;1.00
34460;DHT22;20704;51.260;22.558;2024-02-14T02:20:42;5.40;2.50
34460;DHT22;20704;51.260;22.558;2024-02-14T02:22:47;5.50;3.00
34460;DHT22;20704;51.260;22.558;2024-02-14T02:24:52;5.40;3.80
34460;DHT22;20704;51.260;22.558;2024-02-14T02:26:55;5.60;99.90
34460;DHT22;20704;51.260;22.558;2024-02-14T02:28:59;5.40;15.40
34460;DHT22;20704;51.260;22.558;2024-02-14T02:31:01;5.40;16.50
34460;DHT22;20704;51.260;22.558;2024-02-14T02:33:05;5.40;22.20
34460;DHT22;20704;51.260;22.558;2024-02-14T02:35:08;5.40;22.10
34460;DHT22;20704;51.260;22.558;2024-02-14T02:37:12;5.40;25.10
34460;DHT22;20704;51.260;22.558;2024-02-14T02:39:14;5.40;34.40
34460;DHT22;20704;51.260;22.558;2024-02-14T02:41:17;5.40;44.60
34460;DHT22;20704;51.260;22.558;2024-02-14T02:43:21;5.40;48.40
34460;DHT22;20704;51.260;22.558;2024-02-14T02:45:24;5.30;61.40
34460;DHT22;20704;51.260;22.558;2024-02-14T02:47:26;5.30;70.10
34460;DHT22;20704;51.260;22.558;2024-02-14T02:49:30;5.30;77.00
34460;DHT22;20704;51.260;22.558;2024-02-14T02:51:32;5.40;90.90
34460;DHT22;20704;51.260;22.558;2024-02-14T02:53:34;5.50;99.90
34460;DHT22;20704;51.260;22.558;2024-02-14T02:55:37;5.30;94.50
34460;DHT22;20704;51.260;22.558;2024-02-14T02:57:41;5.30;96.50
34460;DHT22;20704;51.260;22.558;2024-02-14T02:59:43;5.30;99.90
34460;DHT22;20704;51.260;22.558;2024-02-14T03:01:47;5.30;99.90
34460;DHT22;20704;51.260;22.558;2024-02-14T03:03:51;5.30;99.90
34460;DHT22;20704;51.260;22.558;2024-02-14T03:05:54;5.40;99.90
34460;DHT22;20704;51.260;22.558;2024-02-14T03:07:59;5.40;99.90
34460;DHT22;20704;51.260;22.558;2024-02-14T03:10:02;5.30;99.90
34460;DHT22;20704;51.260;22.558;2024-02-14T03:12:05;5.30;99.90
34460;DHT22;20704;51.260;22.558;2024-02-14T03:14:08;5.30;99.90
34460;DHT22;20704;51.260;22.558;2024-02-14T03:16:10;5.30;99.90
34460;DHT22;20704;51.260;22.558;2024-02-14T03:18:13;5.20;99.90
34460;DHT22;20704;51.260;22.558;2024-02-14T03:20:15;5.30;99.90
34460;DHT22;20704;51.260;22.558;2024-02-14T03:22:20;5.30;99.90
34460;DHT22;20704;51.260;22.558;2024-02-14T03:24:23;5.30;99.90
34460;DHT22;20704;51.260;22.558;2024-02-14T03:26:28;5.20;99.90
34460;DHT22;20704;51.260;22.558;2024-02-14T03:28:31;5.30;99.90
34460;DHT22;20704;51.260;22.558;2024-02-14T03:30:33;5.30;99.90
34460;DHT22;20704;51.260;22.558;2024-02-14T03:32:35;5.30;99.90
34460;DHT22;20704;51.260;22.558;2024-02-14T03:34:38;5.30;99.90
34460;DHT22;20704;51.260;22.558;2024-02-14T03:36:40;5.30;99.90
34460;DHT22;20704;51.260;22.558;2024-02-14T03:38:43;5.30;99.90
34460;DHT22;20704;51.260;22.558;2024-02-14T03:40:45;5.30;99.90
34460;DHT22;20704;51.260;22.558;2024-02-14T03:42:48;5.30;99.90
34460;DHT22;20704;51.260;22.558;2024-02-14T03:44:50;5.30;99.90
34460;DHT22;20704;51.260;22.558;2024-02-14T03:46:53;5.30;99.90
34460;DHT22;20704;51.260;22.558;2024-02-14T03:48:55;5.30;99.90
34460;DHT22;20704;51.260;22.558;2024-02-14T03:53:01;5.30;99.90
34460;DHT22;20704;51.260;22.558;2024-02-14T03:55:06;5.20;99.90
34460;DHT22;20704;51.260;22.558;2024-02-14T03:59:15;5.20;99.90
34460;DHT22;20704;51.260;22.558;2024-02-14T04:01:17;5.20;99.90
34460;DHT22;20704;51.260;22.558;2024-02-14T04:03:20;5.20;99.90
34460;DHT22;20704;51.260;22.558;2024-02-14T04:05:22;5.20;99.90
34460;DHT22;20704;51.260;22.558;2024-02-14T04:07:25;5.20;99.90
34460;DHT22;20704;51.260;22.558;2024-02-14T04:09:27;5.20;99.90
34460;DHT22;20704;51.260;22.558;2024-02-14T04:11:29;5.20;99.90
34460;DHT22;20704;51.260;22.558;2024-02-14T04:13:32;5.30;99.90
34460;DHT22;20704;51.260;22.558;2024-02-14T04:15:34;5.20;99.90
34460;DHT22;20704;51.260;22.558;2024-02-14T04:17:36;5.20;99.90
34460;DHT22;20704;51.260;22.558;2024-02-14T04:19:39;5.20;99.90
34460;DHT22;20704;51.260;22.558;2024-02-14T04:21:42;5.20;99.90
34460;DHT22;20704;51.260;22.558;2024-02-14T04:25:47;5.20;99.90
34460;DHT22;20704;51.260;22.558;2024-02-14T04:27:50;5.20;99.90
34460;DHT22;20704;51.260;22.558;2024-02-14T04:29:52;5.20;99.90
34460;DHT22;20704;51.260;22.558;2024-02-14T04:31:56;5.20;99.90
34460;DHT22;20704;51.260;22.558;2024-02-14T04:36:01;5.20;99.90
34460;DHT22;20704;51.260;22.558;2024-02-14T04:38:04;5.20;99.90
34460;DHT22;20704;51.260;22.558;2024-02-14T04:40:07;5.20;99.90
34460;DHT22;20704;51.260;22.558;2024-02-14T04:42:09;5.20;99.90
34460;DHT22;20704;51.260;22.558;2024-02-14T04:44:12;5.20;99.90
34460;DHT22;20704;51.260;22.558;2024-02-14T04:46:14;5.20;99.90
34460;DHT22;20704;51.260;22.558;2024-02-14T04:48:17;5.20;99.90
34460;DHT22;20704;51.260;22.558;2024-02-14T04:50:20;5.20;1.00
34460;DHT22;20704;51.260;22.558;2024-02-14T04:52:22;5.10;99.90
34460;DHT22;20704;51.260;22.558;2024-02-14T04:54:24;5.10;99.90
34460;DHT22;20704;51.260;22.558;2024-02-14T04:56:28;5.10;99.90
34460;DHT22;20704;51.260;22.558;2024-02-14T04:58:31;5.10;99.90
34460;DHT22;20704;51.260;22.558;2024-02-14T05:00:33;5.10;99.90
34460;DHT22;20704;51.260;22.558;2024-02-14T05:02:36;5.20;99.90
34460;DHT22;20704;51.260;22.558;2024-02-14T05:06:42;5.10;99.90
34460;DHT22;20704;51.260;22.558;2024-02-14T05:08:45;5.20;1.00
34460;DHT22;20704;51.260;22.558;2024-02-14T05:10:47;5.20;99.90
34460;DHT22;20704;51.260;22.558;2024-02-14T05:12:49;5.10;1.00
34460;DHT22;20704;51.260;22.558;2024-02-14T05:14:52;5.10;99.90
34460;DHT22;20704;51.260;22.558;2024-02-14T05:16:54;5.20;1.00
34460;DHT22;20704;51.260;22.558;2024-02-14T05:18:57;5.20;1.00
34460;DHT22;20704;51.260;22.558;2024-02-14T05:21:00;5.10;1.00
34460;DHT22;20704;51.260;22.558;2024-02-14T05:23:03;5.10;1.00
34460;DHT22;20704;51.260;22.558;2024-02-14T05:25:06;5.10;1.00
34460;DHT22;20704;51.260;22.558;2024-02-14T05:27:11;5.10;1.00
34460;DHT22;20704;51.260;22.558;2024-02-14T05:29:14;5.10;1.00
34460;DHT22;20704;51.260;22.558;2024-02-14T05:31:16;5.10;1.00
34460;DHT22;20704;51.260;22.558;2024-02-14T05:33:20;5.10;1.00
34460;DHT22;20704;51.260;22.558;2024-02-14T05:35:24;5.10;1.00
34460;DHT22;20704;51.260;22.558;2024-02-14T05:37:27;5.10;1.00
34460;DHT22;20704;51.260;22.558;2024-02-14T05:39:29;5.10;1.00
34460;DHT22;20704;51.260;22.558;2024-02-14T05:41:31;4.80;99.90
34460;DHT22;20704;51.260;22.558;2024-02-14T05:43:35;5.40;99.90
34460;DHT22;20704;51.260;22.558;2024-02-14T05:45:37;5.10;1.00
34460;DHT22;20704;51.260;22.558;2024-02-14T05:47:40;4.60;99.90
34460;DHT22;20704;51.260;22.558;2024-02-14T05:49:43;5.10;17.90
34460;DHT22;20704;51.260;22.558;2024-02-14T05:51:45;5.10;23.80
34460;DHT22;20704;51.260;22.558;2024-02-14T05:53:47;5.10;32.00
34460;DHT22;20704;51.260;22.558;2024-02-14T05:55:50;5.10;2.60
34460;DHT22;20704;51.260;22.558;2024-02-14T05:57:52;5.10;3.90
34460;DHT22;20704;51.260;22.558;2024-02-14T05:59:55;5.10;7.80
34460;DHT22;20704;51.260;22.558;2024-02-14T06:01:59;5.10;17.40
34460;DHT22;20704;51.260;22.558;2024-02-14T06:04:01;5.10;40.50
34460;DHT22;20704;51.260;22.558;2024-02-14T06:06:04;5.10;37.10
34460;DHT22;20704;51.260;22.558;2024-02-14T06:08:07;5.10;26.10
34460;DHT22;20704;51.260;22.558;2024-02-14T06:10:09;5.10;1.00
34460;DHT22;20704;51.260;22.558;2024-02-14T06:12:11;5.10;1.00
34460;DHT22;20704;51.260;22.558;2024-02-14T06:14:14;5.10;1.00
34460;DHT22;20704;51.260;22.558;2024-02-14T06:16:18;5.10;1.00
34460;DHT22;20704;51.260;22.558;2024-02-14T06:18:20;5.20;1.00
34460;DHT22;20704;51.260;22.558;2024-02-14T06:20:22;5.20;1.00
34460;DHT22;20704;51.260;22.558;2024-02-14T06:22:25;5.10;1.00
34460;DHT22;20704;51.260;22.558;2024-02-14T06:24:27;5.20;1.00
34460;DHT22;20704;51.260;22.558;2024-02-14T06:26:31;5.20;1.00
34460;DHT22;20704;51.260;22.558;2024-02-14T06:28:33;5.20;1.00
34460;DHT22;20704;51.260;22.558;2024-02-14T06:30:36;5.40;1.00
34460;DHT22;20704;51.260;22.558;2024-02-14T06:32:38;5.20;1.00
34460;DHT22;20704;51.260;22.558;2024-02-14T06:34:41;5.20;1.00
34460;DHT22;20704;51.260;22.558;2024-02-14T06:36:44;5.40;1.00
34460;DHT22;20704;51.260;22.558;2024-02-14T06:38:46;5.30;1.00
34460;DHT22;20704;51.260;22.558;2024-02-14T06:40:49;5.40;1.00
34460;DHT22;20704;51.260;22.558;2024-02-14T06:42:51;5.40;1.00
34460;DHT22;20704;51.260;22.558;2024-02-14T06:44:54;5.40;1.00
34460;DHT22;20704;51.260;22.558;2024-02-14T06:46:56;5.40;99.90
34460;DHT22;20704;51.260;22.558;2024-02-14T06:48:58;5.50;99.90
34460;DHT22;20704;51.260;22.558;2024-02-14T06:51:01;5.60;99.90
34460;DHT22;20704;51.260;22.558;2024-02-14T06:53:29;5.60;99.90
34460;DHT22;20704;51.260;22.558;2024-02-14T06:55:33;5.60;99.90
34460;DHT22;20704;51.260;22.558;2024-02-14T06:57:35;5.70;99.90
34460;DHT22;20704;51.260;22.558;2024-02-14T06:59:37;5.80;99.90
34460;DHT22;20704;51.260;22.558;2024-02-14T07:01:40;5.80;99.90
34460;DHT22;20704;51.260;22.558;2024-02-14T07:03:42;5.90;99.90
34460;DHT22;20704;51.260;22.558;2024-02-14T07:05:44;5.90;99.90
34460;DHT22;20704;51.260;22.558;2024-02-14T07:11:53;6.20;99.90
34460;DHT22;20704;51.260;22.558;2024-02-14T07:15:58;6.40;99.90
34460;DHT22;20704;51.260;22.558;2024-02-14T07:18:01;6.60;99.90
34460;DHT22;20704;51.260;22.558;2024-02-14T07:20:04;6.80;99.90
34460;DHT22;20704;51.260;22.558;2024-02-14T07:22:06;6.90;74.70
34460;DHT22;20704;51.260;22.558;2024-02-14T07:26:12;7.10;1.00
34460;DHT22;20704;51.260;22.558;2024-02-14T07:28:14;7.10;69.00
34460;DHT22;20704;51.260;22.558;2024-02-14T07:30:17;7.10;1.00
34460;DHT22;20704;51.260;22.558;2024-02-14T07:32:20;7.20;1.00
34460;DHT22;20704;51.260;22.558;2024-02-14T07:34:22;7.20;1.00
34460;DHT22;20704;51.260;22.558;2024-02-14T07:36:25;7.20;1.00
34460;DHT22;20704;51.260;22.558;2024-02-14T07:38:27;7.20;1.00
34460;DHT22;20704;51.260;22.558;2024-02-14T07:40:31;7.20;1.00
34460;DHT22;20704;51.260;22.558;2024-02-14T07:42:33;7.10;1.00
34460;DHT22;20704;51.260;22.558;2024-02-14T07:44:35;7.10;1.00
34460;DHT22;20704;51.260;22.558;2024-02-14T07:46:38;7.10;1.00
34460;DHT22;20704;51.260;22.558;2024-02-14T07:48:40;7.00;1.00
34460;DHT22;20704;51.260;22.558;2024-02-14T07:50:43;7.00;1.00
34460;DHT22;20704;51.260;22.558;2024-02-14T07:52:46;7.10;1.00
34460;DHT22;20704;51.260;22.558;2024-02-14T07:54:53;9.30;1.00
34460;DHT22;20704;51.260;22.558;2024-02-14T07:56:58;13.50;1.00
34460;DHT22;20704;51.260;22.558;2024-02-14T07:59:01;17.00;99.90
34460;DHT22;20704;51.260;22.558;2024-02-14T08:01:03;17.70;99.90
34460;DHT22;20704;51.260;22.558;2024-02-14T08:03:06;17.50;99.90
34460;DHT22;20704;51.260;22.558;2024-02-14T08:05:09;17.00;99.90
34460;DHT22;20704;51.260;22.558;2024-02-14T08:07:11;16.70;99.90
34460;DHT22;20704;51.260;22.558;2024-02-14T08:09:14;16.30;99.90
34460;DHT22;20704;51.260;22.558;2024-02-14T08:11:16;16.60;99.90
34460;DHT22;20704;51.260;22.558;2024-02-14T08:13:19;16.50;99.90
34460;DHT22;20704;51.260;22.558;2024-02-14T08:15:22;17.20;99.90
34460;DHT22;20704;51.260;22.558;2024-02-14T08:17:24;17.80;99.90
34460;DHT22;20704;51.260;22.558;2024-02-14T08:19:26;17.80;99.90
34460;DHT22;20704;51.260;22.558;2024-02-14T08:21:29;17.70;99.90
34460;DHT22;20704;51.260;22.558;2024-02-14T08:23:33;17.30;99.90
34460;DHT22;20704;51.260;22.558;2024-02-14T08:25:37;17.80;99.90
34460;DHT22;20704;51.260;22.558;2024-02-14T08:27:39;16.20;99.90
34460;DHT22;20704;51.260;22.558;2024-02-14T08:29:42;15.60;99.90
34460;DHT22;20704;51.260;22.558;2024-02-14T08:31:47;15.20;99.90
34460;DHT22;20704;51.260;22.558;2024-02-14T08:33:50;14.50;99.90
34460;DHT22;20704;51.260;22.558;2024-02-14T08:35:53;14.20;99.90
34460;DHT22;20704;51.260;22.558;2024-02-14T08:37:59;13.80;99.90
34460;DHT22;20704;51.260;22.558;2024-02-14T08:40:01;13.60;99.90
34460;DHT22;20704;51.260;22.558;2024-02-14T08:42:04;13.80;99.90
34460;DHT22;20704;51.260;22.558;2024-02-14T08:44:10;14.10;99.90
34460;DHT22;20704;51.260;22.558;2024-02-14T08:46:12;14.20;99.90
34460;DHT22;20704;51.260;22.558;2024-02-14T08:48:15;14.40;99.90
34460;DHT22;20704;51.260;22.558;2024-02-14T08:50:17;14.70;99.90
34460;DHT22;20704;51.260;22.558;2024-02-14T08:52:20;15.20;99.90
34460;DHT22;20704;51.260;22.558;2024-02-14T08:54:23;15.70;99.90
34460;DHT22;20704;51.260;22.558;2024-02-14T08:56:25;16.10;99.90
34460;DHT22;20704;51.260;22.558;2024-02-14T08:58:27;16.90;99.90
34460;DHT22;20704;51.260;22.558;2024-02-14T09:00:30;17.70;99.90
34460;DHT22;20704;51.260;22.558;2024-02-14T09:02:33;18.10;99.90
34460;DHT22;20704;51.260;22.558;2024-02-14T09:04:37;17.90;99.90
34460;DHT22;20704;51.260;22.558;2024-02-14T09:06:39;18.00;99.90
34460;DHT22;20704;51.260;22.558;2024-02-14T09:08:44;17.70;99.90
34460;DHT22;20704;51.260;22.558;2024-02-14T09:10:46;17.40;99.90
34460;DHT22;20704;51.260;22.558;2024-02-14T09:12:49;16.90;99.90
34460;DHT22;20704;51.260;22.558;2024-02-14T09:14:51;16.60;99.90
34460;DHT22;20704;51.260;22.558;2024-02-14T09:16:53;16.30;99.90
34460;DHT22;20704;51.260;22.558;2024-02-14T09:18:56;16.20;99.90
34460;DHT22;20704;51.260;22.558;2024-02-14T09:20:59;16.10;99.90
34460;DHT22;20704;51.260;22.558;2024-02-14T09:23:03;15.70;99.90
34460;DHT22;20704;51.260;22.558;2024-02-14T09:25:06;15.60;99.90
34460;DHT22;20704;51.260;22.558;2024-02-14T09:27:11;15.20;99.90
34460;DHT22;20704;51.260;22.558;2024-02-14T09:29:16;15.00;99.90
34460;DHT22;20704;51.260;22.558;2024-02-14T09:31:19;14.80;99.90
34460;DHT22;20704;51.260;22.558;2024-02-14T09:33:22;14.70;99.90
34460;DHT22;20704;51.260;22.558;2024-02-14T09:35:24;14.70;99.90
34460;DHT22;20704;51.260;22.558;2024-02-14T09:37:28;14.80;99.90
34460;DHT22;20704;51.260;22.558;2024-02-14T09:39:30;14.70;99.90
34460;DHT22;20704;51.260;22.558;2024-02-14T09:41:43;14.60;99.90
34460;DHT22;20704;51.260;22.558;2024-02-14T09:43:46;14.50;99.90
34460;DHT22;20704;51.260;22.558;2024-02-14T09:45:51;14.30;99.90
34460;DHT22;20704;51.260;22.558;2024-02-14T09:47:54;14.30;99.90
34460;DHT22;20704;51.260;22.558;2024-02-14T09:49:58;14.30;99.90
34460;DHT22;20704;51.260;22.558;2024-02-14T09:52:01;14.20;99.90
34460;DHT22;20704;51.260;22.558;2024-02-14T09:54:07;14.00;99.90
34460;DHT22;20704;51.260;22.558;2024-02-14T09:56:11;13.80;99.90
34460;DHT22;20704;51.260;22.558;2024-02-14T09:58:16;13.60;99.90
34460;DHT22;20704;51.260;22.558;2024-02-14T10:00:19;13.50;99.90
34460;DHT22;20704;51.260;22.558;2024-02-14T10:02:22;13.30;99.90
34460;DHT22;20704;51.260;22.558;2024-02-14T10:04:24;13.20;99.90
34460;DHT22;20704;51.260;22.558;2024-02-14T10:06:28;12.90;99.90
34460;DHT22;20704;51.260;22.558;2024-02-14T10:08:31;12.70;99.90
34460;DHT22;20704;51.260;22.558;2024-02-14T10:10:34;12.50;99.90
34460;DHT22;20704;51.260;22.558;2024-02-14T10:12:37;12.40;99.90
34460;DHT22;20704;51.260;22.558;2024-02-14T10:14:41;12.20;99.90
34460;DHT22;20704;51.260;22.558;2024-02-14T10:16:44;12.20;99.90
34460;DHT22;20704;51.260;22.558;2024-02-14T10:18:48;12.10;99.90
34460;DHT22;20704;51.260;22.558;2024-02-14T10:20:56;12.00;99.90
34460;DHT22;20704;51.260;22.558;2024-02-14T10:23:03;11.70;99.90
34460;DHT22;20704;51.260;22.558;2024-02-14T10:25:06;11.80;99.90
34460;DHT22;20704;51.260;22.558;2024-02-14T10:27:11;11.90;99.90
34460;DHT22;20704;51.260;22.558;2024-02-14T10:29:13;11.90;99.90
34460;DHT22;20704;51.260;22.558;2024-02-14T10:31:17;11.90;99.90
34460;DHT22;20704;51.260;22.558;2024-02-14T10:33:19;11.80;99.90
34460;DHT22;20704;51.260;22.558;2024-02-14T10:35:32;11.60;99.90
34460;DHT22;20704;51.260;22.558;2024-02-14T10:37:35;11.50;99.90
34460;DHT22;20704;51.260;22.558;2024-02-14T10:39:39;11.70;99.90
34460;DHT22;20704;51.260;22.558;2024-02-14T10:41:43;12.10;99.90
34460;DHT22;20704;51.260;22.558;2024-02-14T10:43:46;12.50;99.90
34460;DHT22;20704;51.260;22.558;2024-02-14T10:45:49;12.80;99.90
34460;DHT22;20704;51.260;22.558;2024-02-14T10:47:53;12.90;99.90
34460;DHT22;20704;51.260;22.558;2024-02-14T10:50:04;13.40;99.90
34460;DHT22;20704;51.260;22.558;2024-02-14T10:54:11;13.80;99.90
34460;DHT22;20704;51.260;22.558;2024-02-14T10:56:18;14.00;99.90
34460;DHT22;20704;51.260;22.558;2024-02-14T10:58:24;14.20;99.90
34460;DHT22;20704;51.260;22.558;2024-02-14T11:00:27;14.30;99.90
34460;DHT22;20704;51.260;22.558;2024-02-14T11:02:32;14.60;99.90
34460;DHT22;20704;51.260;22.558;2024-02-14T11:04:36;14.40;99.90
34460;DHT22;20704;51.260;22.558;2024-02-14T11:06:51;14.20;99.90
34460;DHT22;20704;51.260;22.558;2024-02-14T11:09:02;14.00;99.90
34460;DHT22;20704;51.260;22.558;2024-02-14T11:11:12;13.90;99.90
34460;DHT22;20704;51.260;22.558;2024-02-14T11:13:15;13.60;99.90
34460;DHT22;20704;51.260;22.558;2024-02-14T11:15:24;13.30;99.90
34460;DHT22;20704;51.260;22.558;2024-02-14T11:17:33;13.00;99.90
34460;DHT22;20704;51.260;22.558;2024-02-14T11:19:36;12.70;99.90
34460;DHT22;20704;51.260;22.558;2024-02-14T11:21:44;12.50;99.90
34460;DHT22;20704;51.260;22.558;2024-02-14T11:23:54;12.30;99.90
34460;DHT22;20704;51.260;22.558;2024-02-14T11:26:01;12.20;99.90
34460;DHT22;20704;51.260;22.558;2024-02-14T11:28:19;11.90;99.90
34460;DHT22;20704;51.260;22.558;2024-02-14T11:30:34;11.70;99.90
34460;DHT22;20704;51.260;22.558;2024-02-14T11:32:37;11.50;99.90
34460;DHT22;20704;51.260;22.558;2024-02-14T11:34:42;11.40;99.90
34460;DHT22;20704;51.260;22.558;2024-02-14T11:36:46;11.20;99.90
34460;DHT22;20704;51.260;22.558;2024-02-14T11:38:49;11.00;99.90
34460;DHT22;20704;51.260;22.558;2024-02-14T11:40:54;11.00;99.90
34460;DHT22;20704;51.260;22.558;2024-02-14T11:42:59;10.90;99.90
34460;DHT22;20704;51.260;22.558;2024-02-14T11:45:02;10.80;99.90
34460;DHT22;20704;51.260;22.558;2024-02-14T11:49:08;10.70;99.90
34460;DHT22;20704;51.260;22.558;2024-02-14T11:53:15;10.60;99.90
34460;DHT22;20704;51.260;22.558;2024-02-14T11:55:28;10.60;99.90
34460;DHT22;20704;51.260;22.558;2024-02-14T11:57:30;10.60;99.90
34460;DHT22;20704;51.260;22.558;2024-02-14T11:59:34;10.60;99.90
34460;DHT22;20704;51.260;22.558;2024-02-14T12:01:37;10.70;99.90
34460;DHT22;20704;51.260;22.558;2024-02-14T12:03:40;10.70;99.90
34460;DHT22;20704;51.260;22.558;2024-02-14T12:07:47;10.90;99.90
34460;DHT22;20704;51.260;22.558;2024-02-14T12:09:49;11.10;99.90
34460;DHT22;20704;51.260;22.558;2024-02-14T12:13:56;11.10;99.90
34460;DHT22;20704;51.260;22.558;2024-02-14T12:16:00;11.10;99.90
34460;DHT22;20704;51.260;22.558;2024-02-14T12:18:03;11.10;99.90
34460;DHT22;20704;51.260;22.558;2024-02-14T12:20:09;11.10;99.90
34460;DHT22;20704;51.260;22.558;2024-02-14T12:22:13;11.00;99.90
34460;DHT22;20704;51.260;22.558;2024-02-14T12:24:41;10.80;99.90
34460;DHT22;20704;51.260;22.558;2024-02-14T12:26:43;10.90;99.90
34460;DHT22;20704;51.260;22.558;2024-02-14T12:28:46;10.70;99.90
34460;DHT22;20704;51.260;22.558;2024-02-14T12:30:51;10.60;99.90
34460;DHT22;20704;51.260;22.558;2024-02-14T12:32:59;10.60;99.90
34460;DHT22;20704;51.260;22.558;2024-02-14T12:35:03;10.60;99.90
34460;DHT22;20704;51.260;22.558;2024-02-14T12:37:09;10.50;99.90
34460;DHT22;20704;51.260;22.558;2024-02-14T12:39:11;10.40;99.90
34460;DHT22;20704;51.260;22.558;2024-02-14T12:41:15;10.40;99.90
34460;DHT22;20704;51.260;22.558;2024-02-14T12:43:17;10.40;99.90
34460;DHT22;20704;51.260;22.558;2024-02-14T12:45:20;10.30;99.90
34460;DHT22;20704;51.260;22.558;2024-02-14T12:47:22;10.30;99.90
34460;DHT22;20704;51.260;22.558;2024-02-14T12:49:26;10.30;99.90
34460;DHT22;20704;51.260;22.558;2024-02-14T12:51:28;10.40;99.90
34460;DHT22;20704;51.260;22.558;2024-02-14T12:53:31;10.40;99.90
34460;DHT22;20704;51.260;22.558;2024-02-14T12:55:34;10.40;99.90
34460;DHT22;20704;51.260;22.558;2024-02-14T12:57:36;10.60;99.90
34460;DHT22;20704;51.260;22.558;2024-02-14T12:59:38;10.30;99.90
34460;DHT22;20704;51.260;22.558;2024-02-14T13:01:41;10.30;99.90
34460;DHT22;20704;51.260;22.558;2024-02-14T13:05:48;10.20;99.90
34460;DHT22;20704;51.260;22.558;2024-02-14T13:07:51;10.20;99.90
34460;DHT22;20704;51.260;22.558;2024-02-14T13:09:54;10.20;99.90
34460;DHT22;20704;51.260;22.558;2024-02-14T13:11:57;10.10;99.90
34460;DHT22;20704;51.260;22.558;2024-02-14T13:13:59;10.00;99.90
34460;DHT22;20704;51.260;22.558;2024-02-14T13:16:01;10.00;99.90
34460;DHT22;20704;51.260;22.558;2024-02-14T13:18:04;9.90;99.90
34460;DHT22;20704;51.260;22.558;2024-02-14T13:20:07;9.80;99.90
34460;DHT22;20704;51.260;22.558;2024-02-14T13:22:10;9.70;99.90
34460;DHT22;20704;51.260;22.558;2024-02-14T13:24:13;9.70;99.90
34460;DHT22;20704;51.260;22.558;2024-02-14T13:26:15;9.60;99.90
34460;DHT22;20704;51.260;22.558;2024-02-14T13:28:18;9.60;99.90
34460;DHT22;20704;51.260;22.558;2024-02-14T13:30:21;9.60;99.90
34460;DHT22;20704;51.260;22.558;2024-02-14T13:34:27;9.40;99.90
34460;DHT22;20704;51.260;22.558;2024-02-14T13:36:30;9.40;99.90
34460;DHT22;20704;51.260;22.558;2024-02-14T13:40:35;8.80;99.90